Time;durP1;ratioP1;P1;durP2;ratioP2;P2;SDS_P1;SDS_P2;PMS_P1;PMS_P2;Temp;Humidity;BMP_temperature;BMP_pressure;BME280_temperature;BME280_humidity;BME280_pressure;Samples;Min_cycle;Max_cycle;Signal;HPM_P1;HPM_P2
2022/01/17 00:01:07;;;;;;;;;;;;;;;-0.37;67.38;100520.75;5066847;28;19912;-80
2022/01/17 00:03:33;;;;;;;;;;;;;;;-0.40;67.43;100523.22;5066192;28;20476;-80
2022/01/17 00:05:58;;;;;;;;;;;;;;;-0.34;67.39;100520.00;5046805;28;19913;-80
2022/01/17 00:08:24;;;;;;;;;;;;;;;-0.23;67.39;100516.16;5045470;28;19963;-80
2022/01/17 00:10:49;;;;;;;;;;;;;;;-0.26;67.12;100520.34;5046153;28;20380;-80
2022/01/17 00:13:24;;;;;;;;;;;;;;;-0.11;66.85;100520.06;5047459;28;19912;-80
2022/01/17 00:15:54;;;;;;;;;;;;;;;-0.31;66.85;100514.06;5046032;28;19951;-81
2022/01/17 00:18:27;;;;;;;;;;;;;;;-0.31;66.77;100502.00;5046621;28;19999;-80
2022/01/17 00:20:53;;;;;;;;;;;;;;;-0.12;66.63;100502.75;5047063;28;19913;-80
2022/01/17 00:23:18;;;;;;;;;;;;;;;-0.42;66.10;100509.31;5056664;28;19916;-81
2022/01/17 00:25:44;;;;;;;;;;;;;;;-0.63;66.47;100508.41;5066877;28;19981;-80
2022/01/17 00:28:09;;;;;;;;;;;;;;;-0.51;66.19;100519.28;5065065;28;19970;-81
2022/01/17 00:30:34;;;;;;;;;;;;;;;-0.58;66.13;100512.06;5064829;28;19913;-81
2022/01/17 00:33:00;;;;;;;;;;;;;;;-0.61;65.51;100511.94;5046574;28;20697;-80
2022/01/17 00:35:25;;;;;;;;;;;;;;;-0.56;65.38;100503.53;5035895;28;20402;-80
2022/01/17 00:37:51;;;;;;;;;;;;;;;-0.60;64.91;100501.63;5042248;28;19983;-81
2022/01/17 00:40:17;;;;;;;;;;;;;;;-0.67;64.51;100503.91;5065673;28;19920;-81
2022/01/17 00:42:43;;;;;;;;;;;;;;;-0.60;64.54;100512.00;5066646;28;19930;-81
2022/01/17 00:45:12;;;;;;;;;;;;;;;-0.63;64.09;100500.63;5026917;28;20044;-80
2022/01/17 00:47:37;;;;;;;;;;;;;;;-0.61;64.40;100501.56;5062663;28;19973;-80
2022/01/17 00:50:03;;;;;;;;;;;;;;;-0.67;64.53;100493.53;5059252;28;19913;-80
2022/01/17 00:52:28;;;;;;;;;;;;;;;-0.47;64.01;100497.84;5045257;28;19919;-80
2022/01/17 00:54:53;;;;;;;;;;;;;;;-0.69;64.11;100495.19;5046260;28;19908;-80
2022/01/17 00:57:19;;;;;;;;;;;;;;;-0.74;64.74;100488.09;5061077;28;19916;-80
2022/01/17 00:59:44;;;;;;;;;;;;;;;-0.74;65.08;100487.22;5065883;28;19912;-80
2022/01/17 01:02:09;;;;;;;;;;;;;;;-0.76;64.99;100484.56;5066256;28;19913;-81
2022/01/17 01:04:35;;;;;;;;;;;;;;;-0.72;65.16;100480.38;5064815;28;19927;-80
2022/01/17 01:07:00;;;;;;;;;;;;;;;-0.73;65.26;100471.72;5059944;28;19916;-81
2022/01/17 01:09:30;;;;;;;;;;;;;;;-0.66;64.99;100465.09;5054055;28;20382;-80
2022/01/17 01:11:55;;;;;;;;;;;;;;;-0.62;65.00;100460.91;5058642;28;20401;-80
2022/01/17 01:14:20;;;;;;;;;;;;;;;-0.62;64.46;100460.91;5066009;28;19912;-80
2022/01/17 01:16:46;;;;;;;;;;;;;;;-0.69;65.00;100462.38;5065275;28;19913;-80
2022/01/17 01:19:28;;;;;;;;;;;;;;;-0.74;65.81;100461.28;5065853;28;19917;-80
2022/01/17 01:27:46;;;;;;;;;;;;;;;-0.91;67.38;100432.94;5067194;28;19923;-80
2022/01/17 01:30:14;;;;;;;;;;;;;;;-0.98;67.26;100436.09;5050098;28;19924;-80
2022/01/17 01:32:50;;;;;;;;;;;;;;;-1.09;66.52;100430.44;5067348;28;19915;-80
2022/01/17 01:35:19;;;;;;;;;;;;;;;-1.06;66.57;100427.09;5068594;28;19920;-80
2022/01/17 01:37:45;;;;;;;;;;;;;;;-1.04;66.44;100433.22;5069026;28;19917;-80
2022/01/17 01:40:10;;;;;;;;;;;;;;;-1.27;65.78;100421.84;5069508;28;19912;-80
2022/01/17 01:42:35;;;;;;;;;;;;;;;-1.27;65.60;100412.41;5069749;28;20397;-80
2022/01/17 01:45:02;;;;;;;;;;;;;;;-1.36;65.61;100418.88;5063539;28;19967;-80
2022/01/17 01:47:27;;;;;;;;;;;;;;;-1.51;65.49;100416.50;5049644;28;20022;-80
2022/01/17 01:49:53;;;;;;;;;;;;;;;-1.40;66.27;100412.69;5049473;28;20430;-80
2022/01/17 01:52:19;;;;;;;;;;;;;;;-1.58;66.78;100404.97;5061361;28;19974;-80
2022/01/17 01:54:44;;;;;;;;;;;;;;;-1.43;65.98;100409.06;5069078;28;19908;-80
2022/01/17 01:57:10;;;;;;;;;;;;;;;-1.35;65.47;100400.81;5069448;28;19963;-80
2022/01/17 01:59:37;;;;;;;;;;;;;;;-1.29;65.27;100390.72;5068996;28;20310;-80
2022/01/17 02:02:02;;;;;;;;;;;;;;;-1.22;65.87;100393.59;5069180;28;19944;-80
2022/01/17 02:04:29;;;;;;;;;;;;;;;-1.25;65.90;100396.94;5057799;28;19952;-80
2022/01/17 02:06:54;;;;;;;;;;;;;;;-1.48;66.38;100395.94;5048154;28;20664;-80
2022/01/17 02:09:23;;;;;;;;;;;;;;;-1.43;66.50;100386.66;5048595;28;19912;-80
2022/01/17 02:11:48;;;;;;;;;;;;;;;-1.46;66.81;100389.09;5056216;28;20405;-80
2022/01/17 02:14:14;;;;;;;;;;;;;;;-1.24;66.38;100380.56;5060585;28;20011;-80
2022/01/17 02:16:41;;;;;;;;;;;;;;;-1.19;65.92;100383.38;5048968;28;19917;-80
2022/01/17 02:19:06;;;;;;;;;;;;;;;-1.28;66.23;100381.28;5047787;28;19913;-81
2022/01/17 02:21:34;;;;;;;;;;;;;;;-1.39;66.43;100375.63;5055526;28;19919;-81
2022/01/17 02:24:00;;;;;;;;;;;;;;;-1.40;66.73;100366.09;5051114;28;19991;-81
2022/01/17 02:26:26;;;;;;;;;;;;;;;-1.40;66.39;100372.97;5048112;28;20023;-80
2022/01/17 02:28:53;;;;;;;;;;;;;;;-1.36;66.32;100365.41;5047914;28;19917;-80
2022/01/17 02:31:19;;;;;;;;;;;;;;;-1.75;67.53;100370.56;5052553;28;19916;-80
2022/01/17 02:33:45;;;;;;;;;;;;;;;-1.62;67.21;100361.69;5068205;28;19908;-80
2022/01/17 02:36:10;;;;;;;;;;;;;;;-1.56;67.58;100364.53;5058768;28;19916;-80
2022/01/17 02:38:39;;;;;;;;;;;;;;;-1.49;66.86;100381.22;5048990;28;19913;-80
2022/01/17 02:41:05;;;;;;;;;;;;;;;-1.40;66.74;100375.56;5060569;28;19916;-80
2022/01/17 02:43:32;;;;;;;;;;;;;;;-1.39;66.78;100370.47;5068791;28;19912;-80
2022/01/17 02:48:34;;;;;;;;;;;;;;;-1.37;66.54;100383.47;5068714;28;19951;-80
2022/01/17 02:51:00;;;;;;;;;;;;;;;-1.38;66.87;100379.97;5068029;28;19987;-80
2022/01/17 02:53:26;;;;;;;;;;;;;;;-1.45;66.62;100383.13;5068196;28;19972;-80
2022/01/17 02:55:53;;;;;;;;;;;;;;;-1.68;66.07;100375.22;5068161;28;19952;-80
2022/01/17 02:58:20;;;;;;;;;;;;;;;-1.73;66.11;100381.88;5066841;28;19921;-80
2022/01/17 03:00:46;;;;;;;;;;;;;;;-1.70;65.36;100376.84;5068257;28;20384;-80
2022/01/17 03:03:14;;;;;;;;;;;;;;;-1.76;65.90;100380.84;5068212;28;19959;-80
2022/01/17 03:05:40;;;;;;;;;;;;;;;-1.64;65.15;100390.06;5067467;28;19950;-80
2022/01/17 03:08:06;;;;;;;;;;;;;;;-1.81;64.94;100380.63;5067136;28;19916;-80
2022/01/17 03:13:07;;;;;;;;;;;;;;;-2.04;67.00;100369.22;5064325;28;19916;-80
2022/01/17 03:15:33;;;;;;;;;;;;;;;-2.06;66.96;100373.44;5048062;28;19916;-80
2022/01/17 03:17:59;;;;;;;;;;;;;;;-2.41;67.77;100372.66;5060549;28;19931;-80
2022/01/17 03:20:24;;;;;;;;;;;;;;;-2.37;67.88;100359.97;5064469;28;19917;-80
2022/01/17 03:22:50;;;;;;;;;;;;;;;-2.36;67.88;100353.13;5047069;28;19913;-80
2022/01/17 03:25:15;;;;;;;;;;;;;;;-2.39;68.77;100340.91;5047719;28;19956;-80
2022/01/17 03:27:40;;;;;;;;;;;;;;;-2.43;68.56;100336.41;5046605;28;19913;-80
2022/01/17 03:30:06;;;;;;;;;;;;;;;-2.19;68.25;100335.81;5047654;28;19947;-80
2022/01/17 03:32:31;;;;;;;;;;;;;;;-2.07;67.99;100333.78;5066307;28;20422;-80
2022/01/17 03:34:57;;;;;;;;;;;;;;;-2.01;67.41;100334.06;5046920;28;20427;-80
2022/01/17 03:37:22;;;;;;;;;;;;;;;-2.05;67.40;100329.56;5047990;28;19917;-80
2022/01/17 03:39:49;;;;;;;;;;;;;;;-2.07;67.19;100333.78;5046065;28;19917;-80
2022/01/17 03:42:14;;;;;;;;;;;;;;;-2.01;66.87;100333.16;5046856;28;19919;-79
2022/01/17 03:44:40;;;;;;;;;;;;;;;-2.00;66.58;100328.06;5056740;28;20645;-79
2022/01/17 03:47:05;;;;;;;;;;;;;;;-2.08;66.89;100326.84;5045452;28;19916;-80
2022/01/17 03:49:30;;;;;;;;;;;;;;;-2.06;66.91;100325.19;5044990;28;19971;-79
2022/01/17 03:51:56;;;;;;;;;;;;;;;-2.00;66.91;100322.91;5050197;28;19916;-82
2022/01/17 03:54:21;;;;;;;;;;;;;;;-2.09;66.70;100319.00;5066893;28;20367;-80
2022/01/17 03:56:46;;;;;;;;;;;;;;;-2.11;66.89;100313.78;5065941;28;19912;-80
2022/01/17 03:59:12;;;;;;;;;;;;;;;-2.01;66.94;100318.56;5062996;28;19919;-81
2022/01/17 04:01:37;;;;;;;;;;;;;;;-2.01;66.56;100328.00;5047277;28;19944;-80
2022/01/17 04:04:03;;;;;;;;;;;;;;;-1.97;66.20;100317.00;5047077;28;20270;-82
2022/01/17 04:06:28;;;;;;;;;;;;;;;-1.98;66.40;100307.44;5045697;28;19955;-82
2022/01/17 04:08:53;;;;;;;;;;;;;;;-2.39;68.01;100303.88;5064881;28;20720;-82
2022/01/17 04:11:19;;;;;;;;;;;;;;;-2.44;68.09;100306.25;5057055;28;19920;-81
2022/01/17 04:13:45;;;;;;;;;;;;;;;-2.34;68.89;100312.72;5045776;28;19919;-83
2022/01/17 04:16:12;;;;;;;;;;;;;;;-2.42;69.10;100312.34;5044652;28;20011;-83
2022/01/17 04:18:37;;;;;;;;;;;;;;;-2.10;68.23;100314.66;5062717;28;19923;-84
2022/01/17 04:21:03;;;;;;;;;;;;;;;-2.53;67.63;100316.13;5065842;28;20709;-82
2022/01/17 04:23:28;;;;;;;;;;;;;;;-2.43;67.60;100314.88;5048882;28;19916;-85
2022/01/17 04:25:54;;;;;;;;;;;;;;;-2.40;66.96;100315.00;5045460;28;20307;-84
2022/01/17 04:28:19;;;;;;;;;;;;;;;-2.28;67.30;100307.81;5060101;28;19916;-82
2022/01/17 04:30:45;;;;;;;;;;;;;;;-2.24;66.37;100312.34;5050351;28;19921;-79
2022/01/17 04:33:11;;;;;;;;;;;;;;;-2.34;65.79;100316.16;5043584;28;20263;-82
2022/01/17 04:35:36;;;;;;;;;;;;;;;-2.31;65.50;100317.16;5044821;28;19925;-82
2022/01/17 04:38:10;;;;;;;;;;;;;;;-2.26;65.77;100332.03;5057228;28;19915;-81
2022/01/17 04:40:38;;;;;;;;;;;;;;;-2.40;66.26;100333.97;5058347;28;19921;-82
2022/01/17 04:43:05;;;;;;;;;;;;;;;-2.26;66.92;100324.28;5054278;28;19912;-82
2022/01/17 04:45:31;;;;;;;;;;;;;;;-2.46;67.96;100325.94;5052750;28;19917;-81
2022/01/17 04:47:56;;;;;;;;;;;;;;;-2.31;68.12;100330.94;5045330;28;20814;-84
2022/01/17 04:50:23;;;;;;;;;;;;;;;-2.24;68.20;100314.91;5044968;28;19925;-83
2022/01/17 04:52:48;;;;;;;;;;;;;;;-2.03;68.44;100317.59;5046213;28;20006;-81
2022/01/17 04:55:16;;;;;;;;;;;;;;;-2.08;67.51;100318.22;5046667;28;19908;-81
2022/01/17 04:57:42;;;;;;;;;;;;;;;-2.14;67.74;100317.94;5044475;28;19923;-81
2022/01/17 05:00:08;;;;;;;;;;;;;;;-2.10;67.78;100315.56;5045474;28;20282;-81
2022/01/17 05:02:34;;;;;;;;;;;;;;;-1.91;67.24;100318.97;5050518;28;20001;-80
2022/01/17 05:05:02;;;;;;;;;;;;;;;-2.19;67.33;100322.88;5048366;28;19993;-81
2022/01/17 05:07:27;;;;;;;;;;;;;;;-2.26;68.07;100331.16;5062637;28;19923;-82
2022/01/17 05:09:53;;;;;;;;;;;;;;;-2.43;68.75;100328.66;5066490;28;19908;-82
2022/01/17 05:12:18;;;;;;;;;;;;;;;-2.32;68.02;100325.72;5066316;28;19912;-82
2022/01/17 05:14:48;;;;;;;;;;;;;;;-2.23;68.27;100320.97;5051224;28;19963;-82
2022/01/17 05:20:00;;;;;;;;;;;;;;;-2.06;67.51;100329.50;5060876;28;20379;-82
2022/01/17 05:22:29;;;;;;;;;;;;;;;-2.01;67.24;100335.75;5060213;28;20349;-81
2022/01/17 05:24:54;;;;;;;;;;;;;;;-2.18;66.47;100330.72;5060307;28;19917;-81
2022/01/17 05:27:20;;;;;;;;;;;;;;;-2.24;67.16;100320.09;5045903;28;19912;-81
2022/01/17 05:29:48;;;;;;;;;;;;;;;-2.07;66.76;100305.34;5045415;28;19959;-81
2022/01/17 05:32:13;;;;;;;;;;;;;;;-2.04;67.22;100302.91;5048784;28;19917;-82
2022/01/17 05:34:41;;;;;;;;;;;;;;;-2.09;67.31;100294.03;5046362;28;19908;-81
2022/01/17 05:37:10;;;;;;;;;;;;;;;-2.09;67.35;100299.22;5046288;28;19940;-82
2022/01/17 05:39:37;;;;;;;;;;;;;;;-2.13;66.53;100299.91;5045827;28;19928;-81
2022/01/17 05:42:03;;;;;;;;;;;;;;;-2.39;66.81;100299.56;5045177;28;19919;-81
2022/01/17 05:44:28;;;;;;;;;;;;;;;-2.41;65.64;100298.63;5041705;28;20438;-81
2022/01/17 05:46:53;;;;;;;;;;;;;;;-2.32;65.79;100292.97;5050332;28;19917;-81
2022/01/17 05:49:19;;;;;;;;;;;;;;;-2.26;65.74;100298.44;5046511;28;19924;-81
2022/01/17 05:51:44;;;;;;;;;;;;;;;-2.36;66.22;100297.13;5047408;28;19913;-81
2022/01/17 05:54:09;;;;;;;;;;;;;;;-2.35;66.28;100298.91;5024940;28;19984;-82
2022/01/17 05:56:34;;;;;;;;;;;;;;;-2.25;66.40;100292.47;5024722;28;19960;-81
2022/01/17 05:59:00;;;;;;;;;;;;;;;-2.17;65.67;100297.97;5026255;28;19948;-81
2022/01/17 06:01:25;;;;;;;;;;;;;;;-2.12;65.64;100296.47;5033253;28;19975;-80
2022/01/17 06:03:50;;;;;;;;;;;;;;;-2.09;65.67;100301.78;5045743;28;19912;-80
2022/01/17 06:06:16;;;;;;;;;;;;;;;-2.07;65.93;100307.03;5046225;28;19912;-81
2022/01/17 06:08:42;;;;;;;;;;;;;;;-2.30;67.56;100312.06;5058860;28;19983;-81
2022/01/17 06:11:07;;;;;;;;;;;;;;;-2.19;68.30;100309.97;5066573;28;19923;-82
2022/01/17 06:13:33;;;;;;;;;;;;;;;-2.16;68.91;100300.63;5051292;28;19916;-81
2022/01/17 06:15:58;;;;;;;;;;;;;;;-1.99;68.40;100295.34;5048982;28;19920;-81
2022/01/17 06:18:23;;;;;;;;;;;;;;;-1.32;74.07;100292.22;5049544;28;19913;-81
2022/01/17 06:20:49;;;;;;;;;;;;;;;-0.55;75.48;100285.00;5049839;28;19962;-81
2022/01/17 06:23:14;;;;;;;;;;;;;;;-0.41;72.38;100282.06;5049024;28;20294;-80
2022/01/17 06:25:39;;;;;;;;;;;;;;;-0.29;71.59;100274.75;5048906;28;19919;-81
2022/01/17 06:28:05;;;;;;;;;;;;;;;-0.09;69.41;100272.03;5049324;28;20390;-81
2022/01/17 06:30:30;;;;;;;;;;;;;;;0.15;69.19;100275.50;5049328;28;20410;-81
2022/01/17 06:32:55;;;;;;;;;;;;;;;0.12;66.41;100277.09;5059631;28;19912;-81
2022/01/17 06:35:21;;;;;;;;;;;;;;;-0.07;65.66;100267.78;5068610;28;20359;-81
2022/01/17 06:37:48;;;;;;;;;;;;;;;-0.24;65.08;100272.34;5067931;28;19908;-81
2022/01/17 06:40:14;;;;;;;;;;;;;;;-0.26;65.00;100274.00;5059553;28;19966;-81
2022/01/17 06:42:40;;;;;;;;;;;;;;;0.05;69.19;100256.94;5047421;28;19916;-82
2022/01/17 06:45:05;;;;;;;;;;;;;;;0.45;68.84;100251.47;5036088;28;20751;-82
2022/01/17 06:47:34;;;;;;;;;;;;;;;0.78;67.98;100245.66;5028536;28;20437;-81
2022/01/17 06:50:00;;;;;;;;;;;;;;;0.84;66.83;100245.88;5032909;28;19913;-82
2022/01/17 06:52:25;;;;;;;;;;;;;;;0.98;67.41;100235.06;5053299;28;19923;-82
2022/01/17 06:54:52;;;;;;;;;;;;;;;1.31;66.72;100232.63;5066694;28;19916;-82
2022/01/17 06:57:18;;;;;;;;;;;;;;;1.52;65.91;100241.94;5068201;28;19916;-83
2022/01/17 06:59:43;;;;;;;;;;;;;;;1.67;65.43;100252.78;5067766;28;19916;-83
2022/01/17 07:02:08;;;;;;;;;;;;;;;1.84;64.50;100248.09;5066863;28;20432;-83
2022/01/17 07:04:34;;;;;;;;;;;;;;;2.03;64.01;100246.88;5066836;28;19919;-82
2022/01/17 07:07:00;;;;;;;;;;;;;;;2.29;62.93;100251.94;5067984;28;19919;-82
2022/01/17 07:09:25;;;;;;;;;;;;;;;2.25;61.30;100248.34;5058251;28;19912;-82
2022/01/17 07:11:50;;;;;;;;;;;;;;;2.30;61.25;100249.38;5051929;28;20382;-82
2022/01/17 07:14:16;;;;;;;;;;;;;;;2.23;61.30;100249.16;5047833;28;19924;-81
2022/01/17 07:16:41;;;;;;;;;;;;;;;2.51;60.58;100230.81;5047708;28;20015;-81
2022/01/17 07:19:07;;;;;;;;;;;;;;;2.29;58.41;100242.41;5048044;28;19982;-81
2022/01/17 07:21:33;;;;;;;;;;;;;;;1.74;58.25;100239.09;5047203;28;19909;-81
2022/01/17 07:23:59;;;;;;;;;;;;;;;1.32;58.95;100239.59;5048148;28;19913;-81
2022/01/17 07:26:24;;;;;;;;;;;;;;;1.09;60.59;100231.06;5047859;28;19905;-81
2022/01/17 07:28:49;;;;;;;;;;;;;;;0.99;61.91;100232.50;5047442;28;19912;-80
2022/01/17 07:31:18;;;;;;;;;;;;;;;1.14;61.19;100228.63;5047905;28;19982;-81
2022/01/17 07:33:43;;;;;;;;;;;;;;;1.01;60.96;100246.41;5047643;28;19913;-81
2022/01/17 07:36:09;;;;;;;;;;;;;;;1.18;62.55;100220.97;5048314;28;20394;-81
2022/01/17 07:38:34;;;;;;;;;;;;;;;1.67;61.04;100207.66;5047632;28;19915;-81
2022/01/17 07:41:00;;;;;;;;;;;;;;;1.53;60.67;100218.56;5047548;28;19916;-81
2022/01/17 07:43:26;;;;;;;;;;;;;;;1.65;60.55;100215.44;5047946;28;20387;-81
2022/01/17 07:46:19;;;;;;;;;;;;;;;1.90;59.43;100213.53;5047571;28;19943;-81
2022/01/17 07:51:11;;;;;;;;;;;;;;;1.76;61.06;100188.03;5046915;28;20330;-81
2022/01/17 07:53:36;;;;;;;;;;;;;;;1.77;61.15;100204.50;5047458;28;19909;-81
2022/01/17 07:56:01;;;;;;;;;;;;;;;2.26;60.23;100195.47;5047270;28;19958;-81
2022/01/17 07:58:27;;;;;;;;;;;;;;;2.17;61.53;100209.97;5047686;28;20547;-82
2022/01/17 08:00:52;;;;;;;;;;;;;;;2.24;59.81;100233.59;5044996;28;20766;-81
2022/01/17 08:03:17;;;;;;;;;;;;;;;2.44;60.66;100215.91;5045726;28;19944;-82
2022/01/17 08:05:43;;;;;;;;;;;;;;;2.39;58.94;100204.47;5045748;28;20376;-81
2022/01/17 08:08:08;;;;;;;;;;;;;;;2.38;59.30;100227.84;5046026;28;19928;-81
2022/01/17 08:10:34;;;;;;;;;;;;;;;2.54;58.68;100234.38;5046031;28;19916;-81
2022/01/17 08:12:59;;;;;;;;;;;;;;;2.12;58.79;100244.53;5047040;28;19913;-81
2022/01/17 08:15:25;;;;;;;;;;;;;;;2.09;58.58;100246.19;5047631;28;19920;-81
2022/01/17 08:17:50;;;;;;;;;;;;;;;2.38;59.73;100262.63;5046855;28;19920;-81
2022/01/17 08:20:16;;;;;;;;;;;;;;;2.77;60.04;100274.03;5046617;28;20364;-81
2022/01/17 08:22:43;;;;;;;;;;;;;;;3.19;58.13;100297.69;5046751;28;19914;-80
2022/01/17 08:25:09;;;;;;;;;;;;;;;3.33;58.50;100321.50;5047094;28;19912;-81
2022/01/17 08:27:34;;;;;;;;;;;;;;;3.57;57.18;100321.19;5046034;28;19908;-81
2022/01/17 08:30:00;;;;;;;;;;;;;;;3.36;56.68;100334.59;5046604;28;19913;-81
2022/01/17 08:32:28;;;;;;;;;;;;;;;3.64;57.32;100317.00;5044755;28;19943;-81
2022/01/17 08:34:54;;;;;;;;;;;;;;;3.66;56.26;100281.41;5060391;28;19919;-81
2022/01/17 08:37:19;;;;;;;;;;;;;;;3.78;56.07;100269.47;5046098;28;19912;-81
2022/01/17 08:39:44;;;;;;;;;;;;;;;4.07;55.45;100247.44;5046315;28;19924;-80
2022/01/17 08:42:11;;;;;;;;;;;;;;;4.44;54.92;100239.47;5045798;28;19982;-81
2022/01/17 08:44:38;;;;;;;;;;;;;;;4.60;54.99;100245.84;5045765;28;20402;-81
2022/01/17 08:47:03;;;;;;;;;;;;;;;4.76;55.21;100200.84;5045239;28;20382;-81
2022/01/17 08:49:28;;;;;;;;;;;;;;;4.93;53.87;100185.41;5045534;28;19915;-81
2022/01/17 08:51:54;;;;;;;;;;;;;;;5.20;53.80;100199.75;5045576;28;19915;-81
2022/01/17 08:54:19;;;;;;;;;;;;;;;5.52;53.42;100197.59;5045389;28;19959;-82
2022/01/17 08:56:44;;;;;;;;;;;;;;;5.94;52.52;100161.47;5044906;28;19959;-79
2022/01/17 08:59:10;;;;;;;;;;;;;;;6.06;52.29;100132.81;5045277;28;19999;-80
2022/01/17 09:01:35;;;;;;;;;;;;;;;6.53;46.77;100138.50;5045078;28;19942;-80
2022/01/17 09:04:01;;;;;;;;;;;;;;;7.01;43.98;100110.88;5044596;28;19912;-82
2022/01/17 09:06:26;;;;;;;;;;;;;;;7.40;42.71;100125.09;5046416;28;20003;-81
2022/01/17 09:08:52;;;;;;;;;;;;;;;7.54;40.67;100122.53;5045925;28;19915;-81
2022/01/17 09:11:18;;;;;;;;;;;;;;;7.64;39.51;100103.31;5045982;28;19920;-81
2022/01/17 09:13:43;;;;;;;;;;;;;;;7.74;40.95;100091.09;5046054;28;19913;-81
2022/01/17 09:16:09;;;;;;;;;;;;;;;8.00;40.16;100082.38;5045808;28;19912;-81
2022/01/17 09:18:34;;;;;;;;;;;;;;;8.04;39.22;100095.53;5046316;28;19913;-81
2022/01/17 09:21:00;;;;;;;;;;;;;;;8.11;39.14;100088.56;5046453;28;20295;-81
2022/01/17 09:23:26;;;;;;;;;;;;;;;8.28;37.61;100114.84;5046343;28;19917;-81
2022/01/17 09:25:51;;;;;;;;;;;;;;;8.28;38.40;100120.13;5046750;28;19974;-81
2022/01/17 09:28:16;;;;;;;;;;;;;;;8.39;38.56;100134.13;5045212;28;20353;-81
2022/01/17 09:30:42;;;;;;;;;;;;;;;8.49;38.52;100140.28;5045704;28;20408;-81
2022/01/17 09:33:07;;;;;;;;;;;;;;;8.34;37.41;100108.69;5045623;28;19919;-81
2022/01/17 09:35:33;;;;;;;;;;;;;;;8.31;37.42;100103.44;5045286;28;19916;-82
2022/01/17 09:37:59;;;;;;;;;;;;;;;8.51;39.48;100098.22;5046296;28;19993;-81
2022/01/17 09:40:24;;;;;;;;;;;;;;;8.53;38.21;100096.50;5045256;28;20050;-82
2022/01/17 09:42:50;;;;;;;;;;;;;;;8.49;38.12;100071.94;5045990;28;19966;-81
2022/01/17 09:45:16;;;;;;;;;;;;;;;8.52;37.70;100077.19;5048444;28;20102;-81
2022/01/17 09:47:43;;;;;;;;;;;;;;;8.44;38.22;100081.59;5049062;28;19908;-81
2022/01/17 09:50:11;;;;;;;;;;;;;;;8.49;37.84;100095.59;5049418;28;19916;-81
2022/01/17 09:52:39;;;;;;;;;;;;;;;8.61;38.70;100076.31;5048897;28;19927;-81
2022/01/17 09:55:07;;;;;;;;;;;;;;;8.71;38.68;100059.66;5049447;28;19913;-81
2022/01/17 09:57:37;;;;;;;;;;;;;;;8.74;38.90;100067.53;5049691;28;19912;-81
2022/01/17 10:00:03;;;;;;;;;;;;;;;8.66;38.26;100074.56;5049540;28;19919;-81
2022/01/17 10:02:28;;;;;;;;;;;;;;;8.82;38.41;100077.16;5049605;28;19916;-83
2022/01/17 10:04:53;;;;;;;;;;;;;;;8.88;38.05;100058.72;5047587;28;20760;-83
2022/01/17 10:07:19;;;;;;;;;;;;;;;8.82;38.17;100079.78;5048578;28;20297;-81
2022/01/17 10:09:53;;;;;;;;;;;;;;;8.93;37.58;100081.53;5047257;28;20375;-82
2022/01/17 10:12:19;;;;;;;;;;;;;;;8.88;37.41;100070.16;5047138;28;20043;-81
2022/01/17 10:14:56;;;;;;;;;;;;;;;8.99;38.45;100059.59;5034096;28;20466;-81
2022/01/17 10:17:22;;;;;;;;;;;;;;;9.11;37.75;100056.94;5028141;28;19916;-81
2022/01/17 10:19:58;;;;;;;;;;;;;;;9.21;37.45;100049.88;5027225;28;19909;-80
2022/01/17 10:22:29;;;;;;;;;;;;;;;9.44;37.34;100035.75;5028409;28;19929;-82
2022/01/17 10:25:18;;;;;;;;;;;;;;;9.42;37.02;100026.94;5028032;28;19967;-81
2022/01/17 10:30:39;;;;;;;;;;;;;;;9.38;35.99;99999.78;5028064;28;20022;-82
2022/01/17 10:35:58;;;;;;;;;;;;;;;9.45;36.48;99985.69;5027232;28;19920;-81
2022/01/17 10:38:25;;;;;;;;;;;;;;;9.56;36.61;99971.56;5027836;28;19920;-82
2022/01/17 10:41:02;;;;;;;;;;;;;;;9.37;37.05;99974.31;5027506;28;19913;-82
2022/01/17 10:43:35;;;;;;;;;;;;;;;9.56;36.17;99969.84;5028446;28;19916;-81
2022/01/17 10:46:01;;;;;;;;;;;;;;;9.69;37.06;99973.25;5027241;28;19963;-81
2022/01/17 10:48:27;;;;;;;;;;;;;;;9.73;35.82;99976.72;5027516;28;19913;-81
2022/01/17 10:50:53;;;;;;;;;;;;;;;9.75;36.09;99986.38;5027289;28;19913;-80
2022/01/17 10:53:18;;;;;;;;;;;;;;;10.00;36.87;99994.97;5027733;28;19963;-81
2022/01/17 10:55:45;;;;;;;;;;;;;;;10.18;36.90;99982.53;5026113;28;19909;-81
2022/01/17 10:58:16;;;;;;;;;;;;;;;10.05;36.01;99968.56;5027852;28;19999;-81
2022/01/17 11:00:43;;;;;;;;;;;;;;;10.19;35.94;99982.53;5025169;28;20323;-82
2022/01/17 11:03:11;;;;;;;;;;;;;;;10.13;35.00;99990.50;5027424;28;19913;-81
2022/01/17 11:05:40;;;;;;;;;;;;;;;10.19;34.12;100000.09;5027845;28;19948;-84
2022/01/17 11:08:06;;;;;;;;;;;;;;;10.17;35.19;99992.19;5027665;28;20059;-81
2022/01/17 11:10:38;;;;;;;;;;;;;;;10.19;34.97;99995.72;5027952;28;19913;-82
2022/01/17 11:13:04;;;;;;;;;;;;;;;10.43;34.61;99983.22;5027339;28;19909;-81
2022/01/17 11:15:34;;;;;;;;;;;;;;;10.40;33.41;99967.41;5044619;28;20379;-81
2022/01/17 11:18:04;;;;;;;;;;;;;;;10.44;34.67;99962.97;5046220;28;19912;-82
2022/01/17 11:20:29;;;;;;;;;;;;;;;10.61;34.61;99976.00;5061329;28;19908;-82
2022/01/17 11:22:56;;;;;;;;;;;;;;;10.73;34.95;99966.16;5042667;28;19920;-81
2022/01/17 11:25:30;;;;;;;;;;;;;;;10.67;35.61;99976.78;5047066;28;19912;-81
2022/01/17 11:27:56;;;;;;;;;;;;;;;10.53;36.41;99971.69;5045103;28;19916;-81
2022/01/17 11:30:21;;;;;;;;;;;;;;;10.52;36.66;99971.72;5047238;28;19920;-81
2022/01/17 11:32:48;;;;;;;;;;;;;;;10.57;36.96;99961.97;5046178;28;20339;-82
2022/01/17 11:35:13;;;;;;;;;;;;;;;10.64;35.83;99963.63;5031799;28;20380;-82
2022/01/17 11:37:41;;;;;;;;;;;;;;;10.83;35.42;99955.50;5026646;28;19985;-81
2022/01/17 11:40:08;;;;;;;;;;;;;;;10.55;33.01;99953.19;5024507;28;20674;-81
2022/01/17 11:42:36;;;;;;;;;;;;;;;10.59;32.91;99959.31;5040463;28;19916;-81
2022/01/17 11:45:03;;;;;;;;;;;;;;;10.65;32.94;99975.94;5044191;28;20693;-80
2022/01/17 11:47:48;;;;;;;;;;;;;;;10.73;33.76;99960.03;5046331;28;19915;-80
2022/01/17 11:50:32;;;;;;;;;;;;;;;10.63;32.97;99947.81;5046232;28;19963;-81
2022/01/17 11:53:00;;;;;;;;;;;;;;;10.51;33.18;99947.06;5045539;28;19912;-80
2022/01/17 11:55:46;;;;;;;;;;;;;;;10.57;34.60;99957.56;5046779;28;20017;-80
2022/01/17 11:58:31;;;;;;;;;;;;;;;10.64;33.75;99949.59;5045188;28;20379;-80
2022/01/17 12:00:57;;;;;;;;;;;;;;;10.39;33.52;99942.81;5044819;28;19919;-81
2022/01/17 12:03:23;;;;;;;;;;;;;;;10.46;33.52;99948.91;5045830;28;19912;-80
2022/01/17 12:05:49;;;;;;;;;;;;;;;10.37;34.08;99952.50;5046161;28;19908;-82
2022/01/17 12:08:15;;;;;;;;;;;;;;;10.34;33.54;99963.06;5046154;28;19943;-80
2022/01/17 12:10:57;;;;;;;;;;;;;;;10.31;34.81;99973.63;5046338;28;19919;-81
2022/01/17 12:13:35;;;;;;;;;;;;;;;10.37;34.90;99975.38;5043230;28;19916;-81
2022/01/17 12:16:14;;;;;;;;;;;;;;;10.31;35.54;99968.34;5045734;28;19956;-81
2022/01/17 12:18:41;;;;;;;;;;;;;;;10.22;34.84;99939.44;5044578;28;20365;-81
2022/01/17 12:21:28;;;;;;;;;;;;;;;10.22;35.79;99949.97;5046816;28;19920;-82
2022/01/17 12:24:13;;;;;;;;;;;;;;;10.20;35.30;99936.81;5027828;28;20007;-82
2022/01/17 12:26:38;;;;;;;;;;;;;;;10.27;35.90;99942.91;5024927;28;20007;-82
2022/01/17 12:29:04;;;;;;;;;;;;;;;10.16;35.91;99940.38;5024451;28;20346;-81
2022/01/17 12:31:48;;;;;;;;;;;;;;;10.31;36.01;99930.56;5025686;28;19944;-81
2022/01/17 12:34:24;;;;;;;;;;;;;;;10.43;35.53;99924.34;5029329;28;19913;-82
2022/01/17 12:36:50;;;;;;;;;;;;;;;10.44;36.31;99928.69;5045347;28;20378;-81
2022/01/17 12:39:17;;;;;;;;;;;;;;;10.38;35.91;99930.53;5044267;28;20003;-82
2022/01/17 12:41:43;;;;;;;;;;;;;;;10.29;36.04;99927.09;5045502;28;20416;-81
2022/01/17 12:44:28;;;;;;;;;;;;;;;10.23;37.21;99932.41;5029310;28;20599;-81
2022/01/17 12:46:55;;;;;;;;;;;;;;;10.18;37.52;99912.22;5024449;28;20371;-82
2022/01/17 12:49:21;;;;;;;;;;;;;;;10.12;38.11;99919.34;5025117;28;19909;-80
2022/01/17 12:51:48;;;;;;;;;;;;;;;10.09;37.34;99901.78;5025473;28;19909;-83
2022/01/17 12:54:15;;;;;;;;;;;;;;;10.08;37.89;99884.22;5025942;28;19909;-82
2022/01/17 12:56:45;;;;;;;;;;;;;;;10.20;38.09;99894.63;5025629;28;19979;-82
2022/01/17 12:59:11;;;;;;;;;;;;;;;10.45;37.65;99909.34;5025412;28;19913;-82
2022/01/17 13:01:42;;;;;;;;;;;;;;;10.32;37.81;99914.72;5025747;28;19913;-82
2022/01/17 13:04:11;;;;;;;;;;;;;;;10.24;38.36;99898.13;5025491;28;19946;-82